Time;durP1;ratioP1;P1;durP2;ratioP2;P2;SDS_P1;SDS_P2;PMS_P1;PMS_P2;Temp;Humidity;BMP_temperature;BMP_pressure;BME280_temperature;BME280_humidity;BME280_pressure;Samples;Min_cycle;Max_cycle;Signal;HPM_P1;HPM_P2
2023/09/01 00:00:44;;;;;;;1.25;0.90;;;;;;;15.76;100.00;99101.69;7391458;19;20049;-83
2023/09/01 00:03:29;;;;;;;2.47;0.40;;;;;;;15.75;100.00;99113.44;7393707;19;20326;-84
2023/09/01 00:05:55;;;;;;;4.88;1.02;;;;;;;15.68;100.00;99102.81;7398795;19;20011;-84
2023/09/01 00:08:23;;;;;;;1.13;0.70;;;;;;;15.65;100.00;99103.88;7401911;19;20060;-84
2023/09/01 00:10:49;;;;;;;2.65;1.13;;;;;;;15.61;100.00;99103.41;7395152;19;20022;-84
2023/09/01 00:13:15;;;;;;;5.13;0.95;;;;;;;15.57;100.00;99102.97;7393963;19;20084;-85
2023/09/01 00:15:42;;;;;;;1.98;0.80;;;;;;;15.53;100.00;99102.47;7394162;19;20039;-85
2023/09/01 00:18:08;;;;;;;1.38;1.10;;;;;;;15.49;100.00;99110.44;7393356;19;20014;-86
2023/09/01 00:20:34;;;;;;;5.28;0.80;;;;;;;15.42;100.00;99103.31;7397973;19;20361;-84
2023/09/01 00:23:03;;;;;;;3.08;0.95;;;;;;;15.40;100.00;99113.59;7397025;19;20030;-84
2023/09/01 00:25:30;;;;;;;3.25;1.08;;;;;;;15.36;100.00;99113.09;7397281;19;20026;-85
2023/09/01 00:27:56;;;;;;;3.42;1.13;;;;;;;15.30;100.00;99101.16;7399140;19;20409;-85
2023/09/01 00:30:23;;;;;;;1.95;0.73;;;;;;;15.24;100.00;99109.66;7394330;19;20022;-85
2023/09/01 00:32:49;;;;;;;1.38;0.60;;;;;;;15.18;100.00;99109.69;7397030;19;20023;-84
2023/09/01 00:35:15;;;;;;;4.53;1.17;;;;;;;15.08;100.00;99102.94;7396205;19;20030;-85
2023/09/01 00:37:41;;;;;;;1.90;1.05;;;;;;;17.78;100.00;99107.13;7395317;19;20037;-84
2023/09/01 00:40:08;;;;;;;2.90;1.40;;;;;;;19.11;100.00;99096.31;7394945;19;20018;-84
2023/09/01 00:42:34;;;;;;;6.38;1.27;;;;;;;19.24;100.00;99090.59;7394888;19;20023;-84
2023/09/01 00:45:03;;;;;;;1.95;0.60;;;;;;;19.38;100.00;99092.03;7401384;19;20053;-83
2023/09/01 00:47:29;;;;;;;2.65;0.80;;;;;;;19.45;100.00;99096.97;7396168;19;20014;-84
2023/09/01 00:49:55;;;;;;;3.00;0.88;;;;;;;21.40;100.00;99102.97;7395104;19;20022;-83
2023/09/01 00:52:21;;;;;;;4.55;0.52;;;;;;;19.96;100.00;99087.81;7395265;19;20503;-85
2023/09/01 00:54:48;;;;;;;3.13;0.63;;;;;;;20.47;100.00;99097.06;7397589;19;20021;-85
2023/09/01 00:57:14;;;;;;;1.98;0.70;;;;;;;20.98;100.00;99094.88;7395331;19;20015;-85
2023/09/01 00:59:41;;;;;;;1.65;1.05;;;;;;;25.20;100.00;99089.97;7395203;19;20109;-85
2023/09/01 01:02:07;;;;;;;1.35;0.80;;;;;;;26.63;100.00;99092.13;7397200;19;20018;-84
2023/09/01 01:04:33;;;;;;;2.60;1.15;;;;;;;26.88;100.00;99097.47;7397684;19;20026;-85
2023/09/01 01:07:15;;;;;;;0.82;0.70;;;;;;;25.94;100.00;99099.88;7394468;19;20023;-85
2023/09/01 01:10:06;;;;;;;0.60;0.50;;;;;;;25.58;100.00;99095.78;7393896;19;20010;-84
2023/09/01 01:12:49;;;;;;;8.57;1.10;;;;;;;25.95;100.00;99098.50;7393037;19;20019;-84
2023/09/01 01:15:19;;;;;;;0.73;0.52;;;;;;;28.26;92.60;99088.31;7398023;19;20026;-84
2023/09/01 01:17:47;;;;;;;3.55;0.82;;;;;;;28.77;88.52;99089.44;7395100;19;20014;-84
2023/09/01 01:20:22;;;;;;;4.03;0.93;;;;;;;22.34;100.00;99096.66;7394874;19;20484;-84
2023/09/01 01:22:56;;;;;;;0.98;0.68;;;;;;;24.26;100.00;99097.44;7395299;19;20014;-83
2023/09/01 01:25:22;;;;;;;0.35;0.35;;;;;;;25.95;100.00;99092.78;7398947;19;20018;-83
2023/09/01 01:27:48;;;;;;;0.57;0.10;;;;;;;25.73;100.00;99096.84;7395707;19;20014;-83
2023/09/01 01:30:14;;;;;;;1.73;0.85;;;;;;;18.40;100.00;99104.47;7395725;19;20015;-83
2023/09/01 01:32:42;;;;;;;13.18;1.30;;;;;;;23.41;100.00;99098.22;7393926;19;20022;-84
2023/09/01 01:35:20;;;;;;;4.05;1.50;;;;;;;21.67;100.00;99096.34;7396797;19;20014;-84
2023/09/01 01:38:05;;;;;;;0.68;0.60;;;;;;;24.84;100.00;99095.69;7394405;19;20030;-84
2023/09/01 01:40:32;;;;;;;2.78;0.85;;;;;;;28.00;92.35;99086.59;7392692;19;20070;-84
2023/09/01 01:43:03;;;;;;;4.97;0.70;;;;;;;25.61;100.00;99088.13;7393438;19;20019;-84
2023/09/01 01:45:31;;;;;;;4.82;1.13;;;;;;;27.15;99.39;99080.03;7398219;19;20022;-84
2023/09/01 01:47:58;;;;;;;1.42;0.85;;;;;;;27.29;96.97;99073.19;7393141;19;20039;-84
2023/09/01 01:50:24;;;;;;;3.95;0.45;;;;;;;27.08;96.04;99078.88;7393838;19;20066;-84
2023/09/01 01:52:50;;;;;;;0.45;0.45;;;;;;;27.27;96.59;99078.00;7391847;19;20022;-84
2023/09/01 01:55:16;;;;;;;1.70;0.50;;;;;;;25.81;100.00;99077.50;7397401;19;20026;-84
2023/09/01 01:57:42;;;;;;;1.48;0.85;;;;;;;27.50;95.01;99072.50;7393721;19;20010;-84
2023/09/01 02:00:14;;;;;;;2.67;0.70;;;;;;;26.85;97.93;99088.03;7393452;19;20014;-84
2023/09/01 02:02:42;;;;;;;1.45;0.75;;;;;;;25.26;100.00;99086.84;7392943;19;20025;-84
2023/09/01 02:05:09;;;;;;;3.60;0.70;;;;;;;25.17;100.00;99076.91;7397540;19;20018;-84
2023/09/01 02:07:35;;;;;;;0.65;0.38;;;;;;;26.93;98.27;99076.38;7393361;19;20034;-84
2023/09/01 02:10:05;;;;;;;0.57;0.47;;;;;;;28.12;89.90;99076.66;7393268;19;20018;-84
2023/09/01 02:12:33;;;;;;;0.32;0.32;;;;;;;28.64;85.79;99075.69;7390603;19;20018;-84
2023/09/01 02:15:00;;;;;;;2.25;0.40;;;;;;;28.77;83.62;99080.84;7396452;19;20057;-84
2023/09/01 02:17:26;;;;;;;2.10;1.60;;;;;;;28.84;83.12;99077.72;7392880;19;20034;-84
2023/09/01 02:19:52;;;;;;;3.05;0.50;;;;;;;28.58;83.24;99081.81;7392072;19;20418;-84
2023/09/01 02:22:18;;;;;;;2.53;0.77;;;;;;;27.88;86.17;99077.91;7393639;19;20019;-84
2023/09/01 02:24:44;;;;;;;1.30;0.77;;;;;;;28.56;83.79;99075.94;7396629;19;20031;-84
2023/09/01 02:27:10;;;;;;;1.02;0.38;;;;;;;28.90;81.73;99075.25;7389983;19;20306;-84
2023/09/01 02:29:37;;;;;;;3.00;0.47;;;;;;;28.62;81.89;99075.56;7392579;19;20014;-84
2023/09/01 02:32:03;;;;;;;7.13;1.08;;;;;;;28.44;82.35;99075.13;7390507;19;20019;-84
2023/09/01 02:34:29;;;;;;;6.82;0.82;;;;;;;26.97;87.53;99074.56;7395705;19;20018;-84
2023/09/01 02:36:55;;;;;;;4.38;0.98;;;;;;;26.26;93.26;99079.44;7397193;19;20015;-84
2023/09/01 02:39:21;;;;;;;3.55;0.98;;;;;;;25.74;98.94;99078.38;7392921;19;20051;-84
2023/09/01 02:41:48;;;;;;;1.33;0.57;;;;;;;25.76;100.00;99081.38;7389507;19;20357;-85
2023/09/01 02:44:14;;;;;;;5.07;0.65;;;;;;;25.12;100.00;99092.19;7393057;19;20031;-84
2023/09/01 02:46:40;;;;;;;1.50;0.75;;;;;;;26.31;98.73;99089.81;7391775;19;20011;-84
2023/09/01 02:49:06;;;;;;;4.65;1.00;;;;;;;26.67;95.12;99080.97;7388548;19;20079;-84
2023/09/01 02:51:32;;;;;;;4.13;1.02;;;;;;;25.66;100.00;99089.94;7389704;19;20022;-84
2023/09/01 02:53:58;;;;;;;1.55;0.65;;;;;;;27.89;90.77;99081.53;7392587;19;20015;-84
2023/09/01 02:56:24;;;;;;;1.60;0.50;;;;;;;26.04;98.11;99080.63;7388640;19;20021;-84
2023/09/01 02:58:51;;;;;;;5.45;1.10;;;;;;;25.46;100.00;99086.31;7389416;19;20081;-84
2023/09/01 03:01:18;;;;;;;5.88;0.85;;;;;;;25.44;100.00;99094.72;7389905;19;20018;-85
2023/09/01 03:03:44;;;;;;;2.08;0.55;;;;;;;26.51;98.56;99096.22;7393182;19;20365;-84
2023/09/01 03:06:11;;;;;;;2.95;0.80;;;;;;;27.54;90.56;99089.94;7391549;19;20034;-83
2023/09/01 03:08:39;;;;;;;1.40;0.50;;;;;;;27.58;90.81;99084.47;7392815;19;20010;-84
2023/09/01 03:11:05;;;;;;;5.38;1.48;;;;;;;27.34;89.39;99094.97;7391341;19;20014;-84
2023/09/01 03:13:32;;;;;;;0.93;0.60;;;;;;;26.22;92.15;99090.56;7389763;19;20054;-84
2023/09/01 03:15:58;;;;;;;4.18;0.65;;;;;;;27.22;91.70;99087.69;7389444;19;20342;-84
2023/09/01 03:18:24;;;;;;;2.15;0.70;;;;;;;28.49;84.57;99083.38;7389453;19;20025;-85
2023/09/01 03:20:53;;;;;;;1.35;0.45;;;;;;;27.67;87.70;99083.66;7389108;19;20010;-84
2023/09/01 03:23:22;;;;;;;2.20;0.50;;;;;;;34.03;65.25;99084.22;7392443;19;20483;-84
2023/09/01 03:25:54;;;;;;;6.05;0.95;;;;;;;35.65;52.95;99077.50;7389448;19;20074;-84
2023/09/01 03:28:20;;;;;;;4.85;1.27;;;;;;;29.30;67.75;99088.47;7389237;19;20006;-84
2023/09/01 03:30:46;;;;;;;8.02;1.45;;;;;;;26.74;88.67;99091.53;7388868;19;20416;-84
2023/09/01 03:33:13;;;;;;;0.45;0.13;;;;;;;31.18;76.55;99086.38;7388787;19;20011;-84
2023/09/01 03:35:40;;;;;;;4.65;1.40;;;;;;;32.84;61.39;99083.91;7391613;19;20083;-85
2023/09/01 03:38:06;;;;;;;0.52;0.20;;;;;;;27.35;80.16;99093.66;7388064;19;20007;-85
2023/09/01 03:40:35;;;;;;;5.97;0.93;;;;;;;29.99;80.53;99085.44;7389663;19;20483;-85
2023/09/01 03:43:01;;;;;;;1.38;0.82;;;;;;;30.22;68.16;99092.47;7389840;19;20071;-85
2023/09/01 03:45:27;;;;;;;5.43;1.33;;;;;;;32.80;57.42;99081.59;7389804;19;20082;-84
2023/09/01 03:47:53;;;;;;;5.32;1.55;;;;;;;29.32;68.04;99085.72;7389473;19;20025;-84
2023/09/01 03:50:19;;;;;;;3.47;0.90;;;;;;;31.62;56.26;99085.09;7388493;19;20018;-85
2023/09/01 03:52:45;;;;;;;3.55;0.82;;;;;;;28.70;72.49;99084.69;7388174;19;20365;-85
2023/09/01 03:55:12;;;;;;;4.07;0.93;;;;;;;27.99;71.69;99085.06;7389170;19;20025;-85
2023/09/01 03:57:39;;;;;;;4.95;1.05;;;;;;;23.69;100.00;99082.75;7389694;19;20038;-85
2023/09/01 04:00:12;;;;;;;6.03;1.05;;;;;;;39.00;45.30;99063.81;7388808;19;20018;-85
2023/09/01 04:02:41;;;;;;;1.42;0.50;;;;;;;31.68;54.15;99078.91;7390956;19;20028;-84
2023/09/01 04:05:07;;;;;;;1.65;0.82;;;;;;;26.90;78.62;99081.22;7389468;19;20357;-85
2023/09/01 04:07:33;;;;;;;1.30;0.75;;;;;;;25.79;86.78;99085.91;7389949;19;20871;-85
2023/09/01 04:09:59;;;;;;;1.73;0.95;;;;;;;26.75;83.35;99075.84;7389733;19;20018;-85
2023/09/01 04:12:25;;;;;;;4.60;1.58;;;;;;;27.36;77.32;99085.81;7387013;19;20026;-84
2023/09/01 04:14:51;;;;;;;3.97;0.95;;;;;;;27.02;79.27;99090.66;7389295;19;20371;-84
2023/09/01 04:17:18;;;;;;;3.10;0.70;;;;;;;26.67;80.05;99086.69;7391025;19;20459;-84
2023/09/01 04:19:47;;;;;;;0.45;0.28;;;;;;;26.51;80.68;99084.78;7388437;19;20015;-85
2023/09/01 04:22:14;;;;;;;1.38;0.40;;;;;;;26.36;80.94;99079.41;7390844;19;20448;-85
2023/09/01 04:24:40;;;;;;;7.95;0.95;;;;;;;26.65;78.82;99077.97;7393547;19;20074;-85
2023/09/01 04:27:06;;;;;;;3.17;1.00;;;;;;;27.14;75.59;99075.69;7385525;19;20377;-85
2023/09/01 04:29:33;;;;;;;4.68;0.68;;;;;;;26.70;76.88;99073.31;7383517;19;20014;-85
2023/09/01 04:31:59;;;;;;;0.60;0.60;;;;;;;26.62;75.14;99076.31;7382278;19;20077;-84
2023/09/01 04:34:26;;;;;;;2.25;0.90;;;;;;;23.70;90.00;99082.16;7385050;19;20014;-84
2023/09/01 04:36:52;;;;;;;3.97;0.77;;;;;;;22.13;100.00;99090.53;7388321;19;20078;-85
2023/09/01 04:39:20;;;;;;;1.15;0.40;;;;;;;21.53;100.00;99086.53;7383544;19;20661;-85
2023/09/01 04:41:46;;;;;;;13.20;2.05;;;;;;;22.74;100.00;99088.88;7382812;19;20035;-84
2023/09/01 04:44:13;;;;;;;0.50;0.50;;;;;;;22.21;100.00;99092.00;7388987;19;20026;-84
2023/09/01 04:46:40;;;;;;;3.78;1.25;;;;;;;22.15;100.00;99082.97;7390368;19;20035;-84
2023/09/01 04:49:06;;;;;;;1.75;0.70;;;;;;;22.61;100.00;99089.16;7389421;19;20014;-84
2023/09/01 04:51:33;;;;;;;0.68;0.52;;;;;;;23.59;95.41;99091.19;7392492;19;20019;-84
2023/09/01 04:53:59;;;;;;;5.72;0.77;;;;;;;23.31;95.16;99091.63;7395862;19;20017;-84
2023/09/01 04:56:25;;;;;;;2.95;0.77;;;;;;;23.97;93.36;99100.03;7392271;19;20134;-84
2023/09/01 04:58:51;;;;;;;1.45;0.25;;;;;;;21.94;100.00;99099.47;7394639;19;20041;-84
2023/09/01 05:01:18;;;;;;;2.67;1.23;;;;;;;21.53;100.00;99099.94;7392339;19;20010;-84
2023/09/01 05:03:45;;;;;;;1.08;0.40;;;;;;;22.80;100.00;99100.78;7394646;19;20501;-85
2023/09/01 05:06:12;;;;;;;0.75;0.50;;;;;;;22.65;100.00;99105.78;7395821;19;20018;-84
2023/09/01 05:08:38;;;;;;;3.78;1.05;;;;;;;24.80;97.36;99104.66;7395034;19;20038;-84
2023/09/01 05:11:04;;;;;;;2.08;0.75;;;;;;;23.54;100.00;99114.91;7394442;19;20074;-84
2023/09/01 05:13:30;;;;;;;2.25;1.25;;;;;;;25.30;92.48;99107.84;7391684;19;20087;-83
2023/09/01 05:15:56;;;;;;;3.10;0.73;;;;;;;22.23;100.00;99111.28;7392979;19;20029;-84
2023/09/01 05:18:22;;;;;;;3.78;1.10;;;;;;;21.26;100.00;99118.69;7393026;19;20021;-84
2023/09/01 05:20:51;;;;;;;0.68;0.52;;;;;;;21.68;100.00;99112.00;7392055;19;20093;-84
2023/09/01 05:23:17;;;;;;;3.38;0.35;;;;;;;22.00;100.00;99122.72;7397017;19;20011;-84
2023/09/01 05:25:43;;;;;;;0.60;0.60;;;;;;;26.04;93.69;99109.16;7395815;19;20368;-84
2023/09/01 05:28:10;;;;;;;1.70;0.82;;;;;;;24.04;100.00;99104.13;7396029;19;20130;-84
2023/09/01 05:30:37;;;;;;;3.90;0.80;;;;;;;23.63;100.00;99105.72;7395495;19;20015;-84
2023/09/01 05:33:04;;;;;;;0.57;0.40;;;;;;;22.32;100.00;99114.28;7393317;19;20096;-84
2023/09/01 05:35:30;;;;;;;1.65;1.10;;;;;;;22.22;100.00;99121.88;7395339;19;20025;-84
2023/09/01 05:37:56;;;;;;;4.70;1.50;;;;;;;30.62;78.17;99117.78;7394894;19;20017;-84
2023/09/01 05:40:23;;;;;;;3.85;0.90;;;;;;;27.44;81.50;99120.72;7394844;19;20102;-84
2023/09/01 05:42:49;;;;;;;0.82;0.75;;;;;;;20.95;100.00;99135.63;7395695;19;20011;-84
2023/09/01 05:45:15;;;;;;;1.38;0.80;;;;;;;24.97;100.00;99123.78;7393750;19;20026;-84
2023/09/01 05:47:43;;;;;;;3.53;1.23;;;;;;;22.29;100.00;99137.34;7393622;19;20015;-84
2023/09/01 05:50:09;;;;;;;7.80;1.20;;;;;;;23.32;100.00;99127.25;7393880;19;20014;-84
2023/09/01 05:52:35;;;;;;;1.45;0.73;;;;;;;22.32;100.00;99136.22;7392907;19;20077;-85
2023/09/01 05:55:01;;;;;;;6.35;1.40;;;;;;;26.33;92.53;99127.78;7395490;19;20015;-85
2023/09/01 05:57:27;;;;;;;2.20;1.27;;;;;;;22.72;100.00;99133.38;7393637;19;20022;-84
2023/09/01 05:59:54;;;;;;;1.15;0.65;;;;;;;27.03;88.68;99129.28;7393126;19;20026;-84
2023/09/01 06:02:20;;;;;;;2.92;1.40;;;;;;;28.81;70.78;99135.53;7392336;19;20411;-86
2023/09/01 06:04:46;;;;;;;5.22;2.05;;;;;;;24.15;100.00;99131.38;7392638;19;20014;-82
2023/09/01 06:07:12;;;;;;;2.65;1.42;;;;;;;23.53;100.00;99136.16;7392202;19;20014;-82
2023/09/01 06:09:38;;;;;;;4.50;1.23;;;;;;;22.98;100.00;99138.47;7393610;19;20014;-82
2023/09/01 06:12:05;;;;;;;3.03;1.38;;;;;;;23.09;100.00;99146.53;7392028;19;20011;-82
2023/09/01 06:14:31;;;;;;;2.92;0.98;;;;;;;23.19;100.00;99142.50;7397646;19;20098;-82
2023/09/01 06:16:57;;;;;;;5.63;1.10;;;;;;;23.57;100.00;99147.88;7393182;19;20056;-82
2023/09/01 06:19:23;;;;;;;4.13;0.98;;;;;;;24.50;100.00;99144.19;7392065;19;20015;-82
2023/09/01 06:21:49;;;;;;;2.40;0.77;;;;;;;23.79;100.00;99149.00;7389926;19;20014;-82
2023/09/01 06:24:16;;;;;;;1.75;1.23;;;;;;;31.80;61.19;99142.88;7396643;19;20022;-82
2023/09/01 06:26:42;;;;;;;2.97;1.30;;;;;;;29.99;74.76;99145.03;7392112;19;20349;-82
2023/09/01 06:29:08;;;;;;;1.33;0.77;;;;;;;29.08;68.03;99147.31;7391813;19;20023;-81
2023/09/01 06:31:35;;;;;;;3.30;1.13;;;;;;;25.12;95.41;99152.03;7390132;19;20019;-82
2023/09/01 06:34:02;;;;;;;0.93;0.43;;;;;;;34.42;57.09;99149.41;7394199;19;20018;-82
2023/09/01 06:36:29;;;;;;;3.38;0.88;;;;;;;31.95;56.69;99159.53;7394058;19;20014;-82
2023/09/01 06:38:56;;;;;;;3.58;1.35;;;;;;;27.98;70.61;99161.63;7389955;19;20015;-82
2023/09/01 06:41:22;;;;;;;2.60;1.02;;;;;;;26.43;84.08;99164.91;7390034;19;20003;-82
2023/09/01 06:43:48;;;;;;;3.65;0.90;;;;;;;24.52;100.00;99169.97;7395179;19;20023;-82
2023/09/01 06:46:14;;;;;;;2.47;0.45;;;;;;;23.72;100.00;99170.47;7391542;19;20018;-82
2023/09/01 06:48:43;;;;;;;2.20;1.55;;;;;;;26.51;88.58;99182.63;7391873;19;20019;-82
2023/09/01 06:51:09;;;;;;;0.70;0.68;;;;;;;25.55;98.59;99182.53;7391462;19;20366;-82
2023/09/01 06:53:35;;;;;;;1.50;0.93;;;;;;;26.18;98.65;99184.47;7391492;19;20010;-82
2023/09/01 06:56:02;;;;;;;3.53;1.30;;;;;;;33.10;67.48;99179.63;7389355;19;20084;-83
2023/09/01 06:58:28;;;;;;;7.20;0.93;;;;;;;27.63;75.37;99194.97;7390107;19;20014;-83
2023/09/01 07:00:54;;;;;;;2.33;0.73;;;;;;;38.05;51.57;99177.94;7389021;19;20078;-82
2023/09/01 07:03:20;;;;;;;3.20;0.77;;;;;;;31.85;72.68;99191.41;7393080;19;20018;-82
2023/09/01 07:05:57;;;;;;;4.28;1.80;;;;;;;24.11;100.00;99208.59;7392726;19;20386;-83
2023/09/01 07:08:24;;;;;;;2.33;1.35;;;;;;;26.53;83.71;99202.78;7391709;19;20484;-83
2023/09/01 07:10:50;;;;;;;1.88;0.35;;;;;;;31.51;73.45;99204.00;7390201;19;20011;-83
2023/09/01 07:13:16;;;;;;;0.95;0.73;;;;;;;24.14;100.00;99209.53;7390582;19;20014;-82
2023/09/01 07:15:51;;;;;;;3.22;0.95;;;;;;;20.77;100.00;99209.59;7392530;19;20026;-83
2023/09/01 07:18:18;;;;;;;2.92;0.50;;;;;;;23.43;100.00;99206.38;7390942;19;20026;-83
2023/09/01 07:20:46;;;;;;;2.55;0.50;;;;;;;36.48;57.51;99199.25;7391574;19;20026;-83
2023/09/01 07:23:12;;;;;;;2.08;0.63;;;;;;;28.83;77.99;99208.09;7392122;19;20007;-83
2023/09/01 07:25:39;;;;;;;1.65;0.77;;;;;;;26.76;100.00;99213.75;7389858;19;20041;-83
2023/09/01 07:28:06;;;;;;;0.77;0.40;;;;;;;31.53;86.77;99206.25;7390416;19;20023;-83
2023/09/01 07:30:33;;;;;;;5.35;1.02;;;;;;;23.21;100.00;99218.63;7390274;19;20342;-83
2023/09/01 07:33:00;;;;;;;1.27;0.65;;;;;;;35.38;67.80;99208.28;7390344;19;20018;-84
2023/09/01 07:35:26;;;;;;;1.45;0.40;;;;;;;33.28;66.58;99213.00;7392186;19;20038;-83
2023/09/01 07:37:52;;;;;;;1.00;0.70;;;;;;;39.47;47.10;99206.16;7392076;19;20132;-83
2023/09/01 07:40:18;;;;;;;7.32;1.30;;;;;;;29.06;66.56;99219.59;7388852;19;20014;-82
2023/09/01 07:42:44;;;;;;;2.38;1.45;;;;;;;22.31;100.00;99234.75;7392242;19;20015;-83
2023/09/01 07:45:10;;;;;;;3.13;0.73;;;;;;;20.82;100.00;99234.88;7389939;19;20043;-83
2023/09/01 07:47:36;;;;;;;3.25;1.17;;;;;;;20.89;100.00;99242.63;7391326;19;20018;-84
2023/09/01 07:50:03;;;;;;;3.60;1.48;;;;;;;19.96;100.00;99241.22;7391169;19;20015;-82
2023/09/01 07:52:29;;;;;;;5.35;1.27;;;;;;;23.57;100.00;99236.00;7388804;19;20019;-83
2023/09/01 07:54:55;;;;;;;2.50;0.45;;;;;;;21.87;100.00;99242.03;7391061;19;20018;-83
2023/09/01 07:57:22;;;;;;;2.28;0.65;;;;;;;17.73;100.00;99254.44;7390515;19;20026;-83
2023/09/01 07:59:48;;;;;;;1.98;0.90;;;;;;;18.27;100.00;99249.03;7389453;19;20468;-83
2023/09/01 08:02:14;;;;;;;1.15;0.77;;;;;;;19.16;100.00;99256.34;7389070;19;20015;-83
2023/09/01 08:04:43;;;;;;;2.35;0.57;;;;;;;19.57;100.00;99253.56;7393162;19;20021;-83
2023/09/01 08:07:09;;;;;;;2.25;1.05;;;;;;;21.11;100.00;99267.44;7389950;19;20022;-83
2023/09/01 08:09:35;;;;;;;9.68;2.42;;;;;;;20.12;100.00;99270.34;7390823;19;20086;-83
2023/09/01 08:12:01;;;;;;;2.78;1.63;;;;;;;19.89;100.00;99263.75;7388403;19;20023;-83
2023/09/01 08:14:27;;;;;;;8.85;1.63;;;;;;;35.58;69.57;99246.75;7392961;19;20348;-83
2023/09/01 08:16:54;;;;;;;6.65;0.60;;;;;;;39.40;49.28;99248.25;7391860;19;20034;-82
2023/09/01 08:19:20;;;;;;;1.92;0.57;;;;;;;40.20;44.67;99242.69;7390564;19;20528;-82
2023/09/01 08:21:46;;;;;;;5.75;1.35;;;;;;;29.10;81.78;99251.44;7387288;19;20011;-83
2023/09/01 08:24:12;;;;;;;3.42;1.05;;;;;;;28.12;91.90;99262.78;7391370;19;20010;-83
2023/09/01 08:26:38;;;;;;;6.22;1.08;;;;;;;32.84;77.18;99252.00;7398369;19;20039;-83
2023/09/01 08:29:04;;;;;;;2.45;0.77;;;;;;;28.78;83.30;99257.94;7396973;19;20014;-83
2023/09/01 08:31:32;;;;;;;6.68;1.48;;;;;;;27.95;91.41;99263.03;7395637;19;20022;-83
2023/09/01 08:33:58;;;;;;;0.38;0.30;;;;;;;27.93;92.22;99265.00;7397282;19;20022;-83
2023/09/01 08:36:26;;;;;;;2.92;1.00;;;;;;;37.51;56.21;99249.03;7398615;19;20006;-83
2023/09/01 08:38:52;;;;;;;2.03;1.02;;;;;;;39.40;46.70;99251.19;7396716;19;20010;-83
2023/09/01 08:41:19;;;;;;;14.90;0.73;;;;;;;29.49;77.35;99266.13;7394684;19;20018;-83
2023/09/01 08:43:48;;;;;;;4.70;0.90;;;;;;;28.47;86.46;99258.03;7398111;19;20029;-83
2023/09/01 08:46:21;;;;;;;0.82;0.45;;;;;;;39.24;48.89;99253.75;7395700;19;20006;-84
2023/09/01 08:48:49;;;;;;;1.40;0.45;;;;;;;41.19;42.05;99254.63;7395606;19;20102;-83
2023/09/01 08:51:17;;;;;;;1.63;0.63;;;;;;;41.15;40.06;99260.41;7393447;19;20018;-83
2023/09/01 08:53:44;;;;;;;1.23;0.75;;;;;;;40.88;40.19;99264.38;7393687;19;20309;-83
2023/09/01 08:56:10;;;;;;;2.75;0.60;;;;;;;41.44;38.86;99265.25;7392096;19;20019;-84
2023/09/01 08:58:37;;;;;;;3.05;0.43;;;;;;;42.59;37.24;99269.59;7391861;19;20465;-83
2023/09/01 09:01:03;;;;;;;4.93;0.80;;;;;;;42.42;37.26;99273.78;7392311;19;20018;-84
2023/09/01 09:03:29;;;;;;;3.17;1.05;;;;;;;42.10;37.77;99279.31;7397787;19;20018;-84
2023/09/01 09:05:56;;;;;;;4.35;1.08;;;;;;;42.50;36.91;99279.75;7394881;19;20018;-84
2023/09/01 09:08:22;;;;;;;3.65;0.40;;;;;;;28.32;78.83;99304.28;7395084;19;20029;-84
2023/09/01 09:10:48;;;;;;;0.85;0.47;;;;;;;25.50;100.00;99306.19;7394474;19;20018;-83
2023/09/01 09:13:21;;;;;;;1.38;0.35;;;;;;;30.82;97.71;99302.19;7395687;19;20042;-83
2023/09/01 09:16:10;;;;;;;2.15;1.05;;;;;;;40.08;50.63;99293.53;7395071;19;20025;-84
2023/09/01 09:18:43;;;;;;;1.50;0.70;;;;;;;42.12;42.27;99288.09;7394992;19;20011;-82
2023/09/01 09:21:29;;;;;;;2.10;0.65;;;;;;;42.77;39.36;99302.00;7393611;19;20019;-82
2023/09/01 09:23:58;;;;;;;1.52;0.38;;;;;;;43.09;38.69;99295.66;7398774;19;20014;-82
2023/09/01 09:26:28;;;;;;;2.28;0.40;;;;;;;43.64;36.78;99300.47;7395112;19;20433;-83
2023/09/01 09:28:57;;;;;;;2.72;0.47;;;;;;;44.49;34.88;99300.13;7395724;19;20018;-82
2023/09/01 09:31:33;;;;;;;12.30;0.47;;;;;;;44.51;34.07;99297.19;7392981;19;20054;-84
2023/09/01 09:34:12;;;;;;;2.17;0.40;;;;;;;40.97;35.87;99297.38;7394999;19;20039;-82
2023/09/01 09:36:38;;;;;;;1.65;0.28;;;;;;;35.71;44.98;99312.41;7396516;19;20011;-82
2023/09/01 09:39:09;;;;;;;2.58;0.40;;;;;;;40.97;42.31;99303.22;7390938;19;20484;-82
2023/09/01 09:41:48;;;;;;;0.98;0.60;;;;;;;44.63;35.15;99303.06;7391029;19;20040;-82
2023/09/01 09:44:27;;;;;;;2.53;0.20;;;;;;;43.42;36.29;99306.19;7397500;19;20010;-82
2023/09/01 09:46:54;;;;;;;0.63;0.30;;;;;;;45.31;33.26;99294.25;7393104;19;20385;-82
2023/09/01 09:49:21;;;;;;;0.65;0.40;;;;;;;45.78;32.63;99295.66;7392243;19;20029;-82
2023/09/01 09:51:52;;;;;;;0.63;0.30;;;;;;;46.27;31.18;99296.16;7389800;19;20019;-82
2023/09/01 09:54:23;;;;;;;0.20;0.10;;;;;;;44.16;32.74;99294.09;7393752;19;20084;-82
2023/09/01 09:56:51;;;;;;;1.65;0.35;;;;;;;46.07;30.08;99302.16;7390642;19;20014;-82
2023/09/01 09:59:48;;;;;;;0.57;0.25;;;;;;;44.34;31.04;99302.97;7392649;19;20015;-82
2023/09/01 10:02:38;;;;;;;1.17;0.25;;;;;;;42.69;33.12;99307.03;7389961;19;20025;-82
2023/09/01 10:05:08;;;;;;;0.30;0.25;;;;;;;33.13;43.10;99326.28;7395279;19;20017;-82
2023/09/01 10:07:35;;;;;;;0.60;0.00;;;;;;;22.22;100.00;99348.81;7392727;19;20066;-82
2023/09/01 10:10:02;;;;;;;0.88;0.30;;;;;;;21.08;100.00;99353.53;7390709;19;20034;-82
2023/09/01 10:12:29;;;;;;;0.00;0.00;;;;;;;30.63;71.34;99337.75;7391078;19;20021;-82
2023/09/01 10:14:56;;;;;;;1.23;0.65;;;;;;;27.35;87.62;99342.47;7398490;19;20053;-83
2023/09/01 10:17:22;;;;;;;2.05;0.30;;;;;;;39.72;50.25;99330.63;7394051;19;20400;-83
2023/09/01 10:19:48;;;;;;;0.32;0.22;;;;;;;35.49;59.77;99337.66;7392935;19;20019;-83
2023/09/01 10:22:16;;;;;;;1.65;0.10;;;;;;;36.24;48.26;99340.50;7390491;19;20018;-82
2023/09/01 10:25:06;;;;;;;1.20;0.30;;;;;;;40.01;47.29;99335.69;7393854;19;20513;-83
2023/09/01 10:27:32;;;;;;;0.47;0.20;;;;;;;43.92;36.28;99328.50;7394611;19;20034;-83
2023/09/01 10:29:58;;;;;;;2.95;0.25;;;;;;;44.91;34.16;99339.13;7393251;19;20378;-83
2023/09/01 10:32:27;;;;;;;1.48;0.50;;;;;;;36.32;45.50;99349.53;7389327;19;20100;-81
2023/09/01 10:34:54;;;;;;;0.50;0.25;;;;;;;36.16;48.83;99348.94;7395142;19;20018;-83
2023/09/01 10:37:30;;;;;;;0.03;0.00;;;;;;;44.33;36.31;99330.16;7392926;19;20021;-84
2023/09/01 10:39:57;;;;;;;0.20;0.00;;;;;;;34.86;45.81;99348.00;7391731;19;20023;-89
2023/09/01 10:42:48;;;;;;;0.70;0.17;;;;;;;31.29;56.68;99356.06;7391821;19;20035;-84
2023/09/01 10:45:17;;;;;;;0.10;0.10;;;;;;;31.39;56.60;99353.75;7389285;19;20513;-82
2023/09/01 10:47:51;;;;;;;0.00;0.00;;;;;;;31.20;58.35;99354.09;7385598;19;20362;-82
2023/09/01 10:50:17;;;;;;;0.32;0.00;;;;;;;31.27;59.04;99346.56;7391089;19;20483;-82
2023/09/01 10:52:46;;;;;;;1.77;0.13;;;;;;;31.21;59.74;99349.81;7391364;19;20018;-83
2023/09/01 10:55:12;;;;;;;3.05;0.55;;;;;;;31.11;62.37;99349.25;7392315;19;20152;-82
2023/09/01 10:57:45;;;;;;;0.85;0.43;;;;;;;31.12;61.96;99347.84;7391303;19;20329;-81
2023/09/01 11:00:32;;;;;;;0.77;0.30;;;;;;;31.20;62.44;99336.06;7392497;19;20022;-83
2023/09/01 11:03:30;;;;;;;0.20;0.17;;;;;;;31.79;58.78;99349.53;7391489;19;20017;-82
2023/09/01 11:06:05;;;;;;;0.35;0.15;;;;;;;37.91;51.32;99334.56;7390300;19;20018;-82
2023/09/01 11:08:35;;;;;;;0.40;0.20;;;;;;;44.17;35.49;99327.91;7393056;19;20023;-82
2023/09/01 11:11:09;;;;;;;0.85;0.15;;;;;;;41.58;36.91;99338.53;7389113;19;20019;-82
2023/09/01 11:13:36;;;;;;;0.10;0.10;;;;;;;38.93;40.59;99344.72;7391767;19;20348;-83
2023/09/01 11:16:11;;;;;;;0.32;0.30;;;;;;;31.45;49.55;99361.25;7391901;19;20047;-83
2023/09/01 11:18:37;;;;;;;0.40;0.10;;;;;;;40.81;42.23;99353.31;7393045;19;20115;-82
2023/09/01 11:21:07;;;;;;;0.10;0.03;;;;;;;42.29;34.94;99354.16;7389357;19;20006;-82
2023/09/01 11:23:33;;;;;;;0.63;0.10;;;;;;;41.51;38.06;99350.88;7392172;19;20018;-82
2023/09/01 11:26:00;;;;;;;0.45;0.10;;;;;;;44.34;32.79;99343.34;7390952;19;20026;-81
2023/09/01 11:28:28;;;;;;;1.02;0.20;;;;;;;42.11;36.29;99351.75;7390061;19;20024;-84
2023/09/01 11:30:56;;;;;;;0.15;0.10;;;;;;;45.68;31.00;99342.75;7390228;19;20481;-84
2023/09/01 11:33:25;;;;;;;0.75;0.20;;;;;;;46.52;29.29;99343.94;7387411;19;20048;-84